sensor_id;sensor_type;location;lat;lon;timestamp;P1;durP1;ratioP1;P2;durP2;ratioP2
56136;SDS011;42008;52.934;5.884;2023-06-14T00:01:46;8.23;;;2.20;;
56136;SDS011;42008;52.934;5.884;2023-06-14T00:04:12;9.60;;;2.50;;
56136;SDS011;42008;52.934;5.884;2023-06-14T00:06:38;8.53;;;2.60;;
56136;SDS011;42008;52.934;5.884;2023-06-14T00:09:06;6.53;;;2.33;;
56136;SDS011;42008;52.934;5.884;2023-06-14T00:11:33;8.90;;;2.30;;
56136;SDS011;42008;52.934;5.884;2023-06-14T00:13:59;6.53;;;2.33;;
56136;SDS011;42008;52.934;5.884;2023-06-14T00:16:25;7.60;;;2.50;;
56136;SDS011;42008;52.934;5.884;2023-06-14T00:18:50;10.87;;;2.60;;
56136;SDS011;42008;52.934;5.884;2023-06-14T00:21:16;9.37;;;2.40;;
56136;SDS011;42008;52.934;5.884;2023-06-14T00:23:42;10.63;;;2.40;;
56136;SDS011;42008;52.934;5.884;2023-06-14T00:26:08;7.03;;;2.30;;
56136;SDS011;42008;52.934;5.884;2023-06-14T00:28:34;9.33;;;3.07;;
56136;SDS011;42008;52.934;5.884;2023-06-14T00:31:00;6.83;;;2.43;;
56136;SDS011;42008;52.934;5.884;2023-06-14T00:33:26;15.47;;;2.73;;
56136;SDS011;42008;52.934;5.884;2023-06-14T00:35:51;10.30;;;2.80;;
56136;SDS011;42008;52.934;5.884;2023-06-14T00:38:19;9.80;;;2.70;;
56136;SDS011;42008;52.934;5.884;2023-06-14T00:40:45;5.70;;;2.13;;
56136;SDS011;42008;52.934;5.884;2023-06-14T00:43:11;8.80;;;2.53;;
56136;SDS011;42008;52.934;5.884;2023-06-14T00:45:37;6.23;;;2.40;;
56136;SDS011;42008;52.934;5.884;2023-06-14T00:48:03;5.37;;;2.30;;
56136;SDS011;42008;52.934;5.884;2023-06-14T00:50:31;9.33;;;2.30;;
56136;SDS011;42008;52.934;5.884;2023-06-14T00:52:58;8.77;;;2.30;;
56136;SDS011;42008;52.934;5.884;2023-06-14T00:55:26;7.23;;;2.20;;
56136;SDS011;42008;52.934;5.884;2023-06-14T00:57:53;6.40;;;2.30;;
56136;SDS011;42008;52.934;5.884;2023-06-14T01:00:20;5.47;;;2.20;;
56136;SDS011;42008;52.934;5.884;2023-06-14T01:02:46;7.47;;;2.20;;
56136;SDS011;42008;52.934;5.884;2023-06-14T01:05:11;8.03;;;2.37;;
56136;SDS011;42008;52.934;5.884;2023-06-14T01:13:38;8.17;;;2.40;;
56136;SDS011;42008;52.934;5.884;2023-06-14T01:16:05;8.37;;;2.40;;
56136;SDS011;42008;52.934;5.884;2023-06-14T01:18:32;5.57;;;2.27;;
56136;SDS011;42008;52.934;5.884;2023-06-14T01:21:00;12.03;;;2.93;;
56136;SDS011;42008;52.934;5.884;2023-06-14T01:23:30;9.03;;;2.13;;
56136;SDS011;42008;52.934;5.884;2023-06-14T01:26:00;6.60;;;2.10;;
56136;SDS011;42008;52.934;5.884;2023-06-14T01:28:28;5.33;;;2.10;;
56136;SDS011;42008;52.934;5.884;2023-06-14T01:30:57;5.83;;;2.10;;
56136;SDS011;42008;52.934;5.884;2023-06-14T01:33:28;5.23;;;2.33;;
56136;SDS011;42008;52.934;5.884;2023-06-14T01:35:55;6.80;;;2.40;;
56136;SDS011;42008;52.934;5.884;2023-06-14T01:38:22;10.97;;;2.47;;
56136;SDS011;42008;52.934;5.884;2023-06-14T01:40:50;5.80;;;2.47;;
56136;SDS011;42008;52.934;5.884;2023-06-14T01:43:18;6.47;;;2.40;;
56136;SDS011;42008;52.934;5.884;2023-06-14T01:45:45;7.70;;;2.20;;
56136;SDS011;42008;52.934;5.884;2023-06-14T01:48:13;5.30;;;2.50;;
56136;SDS011;42008;52.934;5.884;2023-06-14T01:50:40;6.70;;;2.60;;
56136;SDS011;42008;52.934;5.884;2023-06-14T01:53:09;3.90;;;2.40;;
56136;SDS011;42008;52.934;5.884;2023-06-14T01:55:35;11.30;;;2.40;;
56136;SDS011;42008;52.934;5.884;2023-06-14T01:58:03;10.43;;;2.43;;
56136;SDS011;42008;52.934;5.884;2023-06-14T02:00:29;8.73;;;2.50;;
56136;SDS011;42008;52.934;5.884;2023-06-14T02:02:55;4.70;;;2.30;;
56136;SDS011;42008;52.934;5.884;2023-06-14T02:05:21;5.47;;;2.33;;
56136;SDS011;42008;52.934;5.884;2023-06-14T02:07:47;5.77;;;2.60;;
56136;SDS011;42008;52.934;5.884;2023-06-14T02:10:13;6.70;;;2.50;;
56136;SDS011;42008;52.934;5.884;2023-06-14T02:12:40;5.47;;;2.20;;
56136;SDS011;42008;52.934;5.884;2023-06-14T02:15:27;9.30;;;2.37;;
56136;SDS011;42008;52.934;5.884;2023-06-14T02:18:02;6.37;;;2.30;;
56136;SDS011;42008;52.934;5.884;2023-06-14T02:20:28;7.17;;;2.30;;
56136;SDS011;42008;52.934;5.884;2023-06-14T02:22:54;7.90;;;2.77;;
56136;SDS011;42008;52.934;5.884;2023-06-14T02:25:20;6.27;;;2.17;;
56136;SDS011;42008;52.934;5.884;2023-06-14T02:27:45;9.47;;;2.60;;
56136;SDS011;42008;52.934;5.884;2023-06-14T02:30:11;8.53;;;3.10;;
56136;SDS011;42008;52.934;5.884;2023-06-14T02:32:37;8.80;;;2.93;;
56136;SDS011;42008;52.934;5.884;2023-06-14T02:35:03;7.57;;;2.50;;
56136;SDS011;42008;52.934;5.884;2023-06-14T02:37:32;4.73;;;2.57;;
56136;SDS011;42008;52.934;5.884;2023-06-14T02:39:58;8.33;;;2.30;;
56136;SDS011;42008;52.934;5.884;2023-06-14T02:42:24;5.67;;;2.40;;
56136;SDS011;42008;52.934;5.884;2023-06-14T02:44:49;10.17;;;2.70;;
56136;SDS011;42008;52.934;5.884;2023-06-14T02:47:18;13.10;;;2.90;;
56136;SDS011;42008;52.934;5.884;2023-06-14T02:49:44;10.67;;;2.40;;
56136;SDS011;42008;52.934;5.884;2023-06-14T02:52:12;6.67;;;2.47;;
56136;SDS011;42008;52.934;5.884;2023-06-14T02:54:38;9.73;;;2.73;;
56136;SDS011;42008;52.934;5.884;2023-06-14T02:57:05;5.47;;;2.63;;
56136;SDS011;42008;52.934;5.884;2023-06-14T02:59:32;4.47;;;2.60;;
56136;SDS011;42008;52.934;5.884;2023-06-14T03:01:58;5.93;;;2.40;;
56136;SDS011;42008;52.934;5.884;2023-06-14T03:04:24;7.10;;;2.37;;
56136;SDS011;42008;52.934;5.884;2023-06-14T03:06:51;6.40;;;2.40;;
56136;SDS011;42008;52.934;5.884;2023-06-14T03:09:19;5.93;;;2.63;;
56136;SDS011;42008;52.934;5.884;2023-06-14T03:11:45;8.37;;;3.07;;
56136;SDS011;42008;52.934;5.884;2023-06-14T03:14:11;5.77;;;2.33;;
56136;SDS011;42008;52.934;5.884;2023-06-14T03:16:38;6.20;;;2.90;;
56136;SDS011;42008;52.934;5.884;2023-06-14T03:19:04;5.93;;;2.57;;
56136;SDS011;42008;52.934;5.884;2023-06-14T03:21:29;5.37;;;2.70;;
56136;SDS011;42008;52.934;5.884;2023-06-14T03:23:55;6.10;;;2.70;;
56136;SDS011;42008;52.934;5.884;2023-06-14T03:26:21;8.33;;;2.57;;
56136;SDS011;42008;52.934;5.884;2023-06-14T03:28:47;5.37;;;2.67;;
56136;SDS011;42008;52.934;5.884;2023-06-14T03:31:15;6.77;;;2.30;;
56136;SDS011;42008;52.934;5.884;2023-06-14T03:33:41;11.37;;;2.70;;
56136;SDS011;42008;52.934;5.884;2023-06-14T03:36:07;5.77;;;2.60;;
56136;SDS011;42008;52.934;5.884;2023-06-14T03:38:33;5.27;;;2.50;;
56136;SDS011;42008;52.934;5.884;2023-06-14T03:40:59;6.90;;;2.60;;
56136;SDS011;42008;52.934;5.884;2023-06-14T03:43:25;9.67;;;2.40;;
56136;SDS011;42008;52.934;5.884;2023-06-14T03:45:51;5.70;;;2.70;;
56136;SDS011;42008;52.934;5.884;2023-06-14T03:48:16;9.43;;;3.03;;
56136;SDS011;42008;52.934;5.884;2023-06-14T03:50:42;7.63;;;2.73;;
56136;SDS011;42008;52.934;5.884;2023-06-14T03:53:09;10.10;;;2.83;;
56136;SDS011;42008;52.934;5.884;2023-06-14T03:55:35;6.47;;;2.57;;
56136;SDS011;42008;52.934;5.884;2023-06-14T03:58:00;6.90;;;2.60;;
56136;SDS011;42008;52.934;5.884;2023-06-14T04:00:26;7.97;;;3.03;;
56136;SDS011;42008;52.934;5.884;2023-06-14T04:02:52;7.33;;;2.80;;
56136;SDS011;42008;52.934;5.884;2023-06-14T04:05:18;5.80;;;3.20;;
56136;SDS011;42008;52.934;5.884;2023-06-14T04:07:47;5.73;;;2.80;;
56136;SDS011;42008;52.934;5.884;2023-06-14T04:10:13;11.43;;;2.97;;
56136;SDS011;42008;52.934;5.884;2023-06-14T04:12:40;8.20;;;2.70;;
56136;SDS011;42008;52.934;5.884;2023-06-14T04:15:06;7.10;;;2.53;;
56136;SDS011;42008;52.934;5.884;2023-06-14T04:17:33;9.53;;;3.03;;
56136;SDS011;42008;52.934;5.884;2023-06-14T04:19:59;6.77;;;3.03;;
56136;SDS011;42008;52.934;5.884;2023-06-14T04:22:25;9.03;;;2.70;;
56136;SDS011;42008;52.934;5.884;2023-06-14T04:24:55;6.33;;;2.73;;
56136;SDS011;42008;52.934;5.884;2023-06-14T04:27:21;7.47;;;2.80;;
56136;SDS011;42008;52.934;5.884;2023-06-14T04:29:50;6.63;;;3.00;;
56136;SDS011;42008;52.934;5.884;2023-06-14T04:32:25;7.18;;;2.72;;
56136;SDS011;42008;52.934;5.884;2023-06-14T04:34:57;8.53;;;3.10;;
56136;SDS011;42008;52.934;5.884;2023-06-14T04:37:24;6.40;;;2.80;;
56136;SDS011;42008;52.934;5.884;2023-06-14T04:39:53;6.37;;;2.70;;
56136;SDS011;42008;52.934;5.884;2023-06-14T04:42:20;6.60;;;2.80;;
56136;SDS011;42008;52.934;5.884;2023-06-14T04:44:55;6.17;;;3.13;;
56136;SDS011;42008;52.934;5.884;2023-06-14T04:47:22;11.00;;;3.17;;
56136;SDS011;42008;52.934;5.884;2023-06-14T04:49:50;7.77;;;2.93;;
56136;SDS011;42008;52.934;5.884;2023-06-14T04:52:18;8.43;;;2.87;;
56136;SDS011;42008;52.934;5.884;2023-06-14T04:54:46;8.10;;;2.90;;
56136;SDS011;42008;52.934;5.884;2023-06-14T04:57:12;7.73;;;2.73;;
56136;SDS011;42008;52.934;5.884;2023-06-14T04:59:45;8.53;;;3.10;;
56136;SDS011;42008;52.934;5.884;2023-06-14T05:02:11;7.43;;;2.77;;
56136;SDS011;42008;52.934;5.884;2023-06-14T05:04:36;6.80;;;3.00;;
56136;SDS011;42008;52.934;5.884;2023-06-14T05:07:08;7.83;;;3.00;;
56136;SDS011;42008;52.934;5.884;2023-06-14T05:09:34;9.03;;;3.10;;
56136;SDS011;42008;52.934;5.884;2023-06-14T05:12:00;7.30;;;2.87;;
56136;SDS011;42008;52.934;5.884;2023-06-14T05:14:26;6.77;;;3.03;;
56136;SDS011;42008;52.934;5.884;2023-06-14T05:16:52;8.23;;;3.07;;
56136;SDS011;42008;52.934;5.884;2023-06-14T05:19:18;6.97;;;2.90;;
56136;SDS011;42008;52.934;5.884;2023-06-14T05:21:46;7.73;;;2.87;;
56136;SDS011;42008;52.934;5.884;2023-06-14T05:24:12;8.57;;;3.40;;
56136;SDS011;42008;52.934;5.884;2023-06-14T05:26:45;10.70;;;3.10;;
56136;SDS011;42008;52.934;5.884;2023-06-14T05:29:11;5.17;;;2.90;;
56136;SDS011;42008;52.934;5.884;2023-06-14T05:31:36;5.73;;;2.90;;
56136;SDS011;42008;52.934;5.884;2023-06-14T05:34:02;8.57;;;3.07;;
56136;SDS011;42008;52.934;5.884;2023-06-14T05:36:28;6.20;;;2.97;;
56136;SDS011;42008;52.934;5.884;2023-06-14T05:38:54;7.80;;;3.40;;
56136;SDS011;42008;52.934;5.884;2023-06-14T05:41:25;9.30;;;3.13;;
56136;SDS011;42008;52.934;5.884;2023-06-14T05:43:52;7.23;;;2.70;;
56136;SDS011;42008;52.934;5.884;2023-06-14T05:46:19;8.90;;;3.07;;
56136;SDS011;42008;52.934;5.884;2023-06-14T05:48:50;10.27;;;3.03;;
56136;SDS011;42008;52.934;5.884;2023-06-14T05:51:17;12.43;;;3.03;;
56136;SDS011;42008;52.934;5.884;2023-06-14T05:53:45;10.47;;;3.30;;
56136;SDS011;42008;52.934;5.884;2023-06-14T05:56:12;9.30;;;3.30;;
56136;SDS011;42008;52.934;5.884;2023-06-14T05:58:38;7.43;;;2.90;;
56136;SDS011;42008;52.934;5.884;2023-06-14T06:01:04;8.83;;;3.10;;
56136;SDS011;42008;52.934;5.884;2023-06-14T06:03:30;5.37;;;3.00;;
56136;SDS011;42008;52.934;5.884;2023-06-14T06:05:55;6.53;;;3.13;;
56136;SDS011;42008;52.934;5.884;2023-06-14T06:08:21;10.93;;;3.20;;
56136;SDS011;42008;52.934;5.884;2023-06-14T06:10:47;8.60;;;2.87;;
56136;SDS011;42008;52.934;5.884;2023-06-14T06:13:12;8.70;;;3.17;;
56136;SDS011;42008;52.934;5.884;2023-06-14T06:15:38;6.50;;;3.27;;
56136;SDS011;42008;52.934;5.884;2023-06-14T06:18:03;5.93;;;2.77;;
56136;SDS011;42008;52.934;5.884;2023-06-14T06:20:29;6.50;;;2.50;;
56136;SDS011;42008;52.934;5.884;2023-06-14T06:22:59;7.57;;;2.90;;
56136;SDS011;42008;52.934;5.884;2023-06-14T06:25:26;7.60;;;3.47;;
56136;SDS011;42008;52.934;5.884;2023-06-14T06:27:52;9.83;;;2.60;;
56136;SDS011;42008;52.934;5.884;2023-06-14T06:30:18;6.47;;;2.67;;
56136;SDS011;42008;52.934;5.884;2023-06-14T06:32:44;6.17;;;2.60;;
56136;SDS011;42008;52.934;5.884;2023-06-14T06:35:10;6.70;;;3.10;;
56136;SDS011;42008;52.934;5.884;2023-06-14T06:37:37;6.80;;;2.63;;
56136;SDS011;42008;52.934;5.884;2023-06-14T06:40:03;6.97;;;2.67;;
56136;SDS011;42008;52.934;5.884;2023-06-14T06:42:31;9.97;;;3.17;;
56136;SDS011;42008;52.934;5.884;2023-06-14T06:44:56;8.10;;;2.87;;
56136;SDS011;42008;52.934;5.884;2023-06-14T06:47:22;9.13;;;2.57;;
56136;SDS011;42008;52.934;5.884;2023-06-14T06:49:48;7.03;;;2.77;;
56136;SDS011;42008;52.934;5.884;2023-06-14T06:52:13;5.37;;;2.33;;
56136;SDS011;42008;52.934;5.884;2023-06-14T06:54:39;4.90;;;2.40;;
56136;SDS011;42008;52.934;5.884;2023-06-14T06:57:05;9.67;;;2.67;;
56136;SDS011;42008;52.934;5.884;2023-06-14T06:59:31;4.93;;;2.67;;
56136;SDS011;42008;52.934;5.884;2023-06-14T07:01:57;8.40;;;2.27;;
56136;SDS011;42008;52.934;5.884;2023-06-14T07:04:23;7.10;;;2.37;;
56136;SDS011;42008;52.934;5.884;2023-06-14T07:06:49;5.67;;;2.53;;
56136;SDS011;42008;52.934;5.884;2023-06-14T07:09:15;8.87;;;2.40;;
56136;SDS011;42008;52.934;5.884;2023-06-14T07:11:41;4.73;;;2.10;;
56136;SDS011;42008;52.934;5.884;2023-06-14T07:14:08;5.03;;;2.13;;
56136;SDS011;42008;52.934;5.884;2023-06-14T07:16:34;5.37;;;2.40;;
56136;SDS011;42008;52.934;5.884;2023-06-14T07:19:00;4.53;;;1.93;;
56136;SDS011;42008;52.934;5.884;2023-06-14T07:21:27;7.63;;;2.13;;
56136;SDS011;42008;52.934;5.884;2023-06-14T07:23:53;6.63;;;1.90;;
56136;SDS011;42008;52.934;5.884;2023-06-14T07:26:19;7.90;;;2.00;;
56136;SDS011;42008;52.934;5.884;2023-06-14T07:28:45;4.03;;;2.07;;
56136;SDS011;42008;52.934;5.884;2023-06-14T07:31:11;4.93;;;2.20;;
56136;SDS011;42008;52.934;5.884;2023-06-14T07:33:37;5.17;;;2.00;;
56136;SDS011;42008;52.934;5.884;2023-06-14T07:36:03;6.90;;;2.10;;
56136;SDS011;42008;52.934;5.884;2023-06-14T07:38:29;7.13;;;1.80;;
56136;SDS011;42008;52.934;5.884;2023-06-14T07:40:57;4.67;;;1.90;;
56136;SDS011;42008;52.934;5.884;2023-06-14T07:43:23;6.30;;;2.10;;
56136;SDS011;42008;52.934;5.884;2023-06-14T07:45:49;6.10;;;1.87;;
56136;SDS011;42008;52.934;5.884;2023-06-14T07:48:14;5.37;;;2.30;;
56136;SDS011;42008;52.934;5.884;2023-06-14T07:50:40;6.68;;;2.05;;
56136;SDS011;42008;52.934;5.884;2023-06-14T07:53:06;5.83;;;1.90;;
56136;SDS011;42008;52.934;5.884;2023-06-14T07:55:31;4.70;;;1.83;;
56136;SDS011;42008;52.934;5.884;2023-06-14T07:57:58;5.00;;;2.03;;
56136;SDS011;42008;52.934;5.884;2023-06-14T08:00:24;7.13;;;2.37;;
56136;SDS011;42008;52.934;5.884;2023-06-14T08:02:49;6.88;;;2.15;;
56136;SDS011;42008;52.934;5.884;2023-06-14T08:05:17;5.68;;;1.90;;
56136;SDS011;42008;52.934;5.884;2023-06-14T08:07:42;6.82;;;2.20;;
56136;SDS011;42008;52.934;5.884;2023-06-14T08:10:08;16.33;;;2.38;;
56136;SDS011;42008;52.934;5.884;2023-06-14T08:12:34;7.60;;;1.90;;
56136;SDS011;42008;52.934;5.884;2023-06-14T08:15:00;6.85;;;2.30;;
56136;SDS011;42008;52.934;5.884;2023-06-14T08:17:26;6.40;;;2.15;;
56136;SDS011;42008;52.934;5.884;2023-06-14T08:19:52;3.97;;;2.00;;
56136;SDS011;42008;52.934;5.884;2023-06-14T08:22:19;9.27;;;2.17;;
56136;SDS011;42008;52.934;5.884;2023-06-14T08:24:46;9.73;;;2.47;;
56136;SDS011;42008;52.934;5.884;2023-06-14T08:27:12;5.20;;;2.25;;
56136;SDS011;42008;52.934;5.884;2023-06-14T08:29:38;8.18;;;2.13;;
56136;SDS011;42008;52.934;5.884;2023-06-14T08:32:05;4.80;;;2.00;;
56136;SDS011;42008;52.934;5.884;2023-06-14T08:34:31;6.15;;;2.13;;
56136;SDS011;42008;52.934;5.884;2023-06-14T08:36:57;6.55;;;2.40;;
56136;SDS011;42008;52.934;5.884;2023-06-14T08:39:24;9.73;;;2.70;;
56136;SDS011;42008;52.934;5.884;2023-06-14T08:41:50;4.03;;;2.10;;
56136;SDS011;42008;52.934;5.884;2023-06-14T08:44:17;7.65;;;2.15;;
56136;SDS011;42008;52.934;5.884;2023-06-14T08:46:43;7.80;;;2.33;;
56136;SDS011;42008;52.934;5.884;2023-06-14T08:49:11;5.55;;;2.33;;
56136;SDS011;42008;52.934;5.884;2023-06-14T08:51:37;8.35;;;2.33;;
56136;SDS011;42008;52.934;5.884;2023-06-14T08:54:05;6.82;;;2.20;;
56136;SDS011;42008;52.934;5.884;2023-06-14T08:56:32;12.07;;;2.63;;
56136;SDS011;42008;52.934;5.884;2023-06-14T08:58:59;4.13;;;2.10;;
56136;SDS011;42008;52.934;5.884;2023-06-14T09:01:34;7.80;;;2.05;;
56136;SDS011;42008;52.934;5.884;2023-06-14T09:04:04;5.97;;;1.90;;
56136;SDS011;42008;52.934;5.884;2023-06-14T09:06:33;6.13;;;2.38;;
56136;SDS011;42008;52.934;5.884;2023-06-14T09:08:59;5.53;;;2.13;;
56136;SDS011;42008;52.934;5.884;2023-06-14T09:11:24;6.10;;;1.88;;
56136;SDS011;42008;52.934;5.884;2023-06-14T09:13:51;4.47;;;1.80;;
56136;SDS011;42008;52.934;5.884;2023-06-14T09:16:17;5.35;;;2.03;;
56136;SDS011;42008;52.934;5.884;2023-06-14T09:18:43;5.53;;;2.40;;
56136;SDS011;42008;52.934;5.884;2023-06-14T09:21:13;5.45;;;1.90;;
56136;SDS011;42008;52.934;5.884;2023-06-14T09:23:43;6.03;;;2.33;;
56136;SDS011;42008;52.934;5.884;2023-06-14T09:26:13;7.30;;;1.90;;
56136;SDS011;42008;52.934;5.884;2023-06-14T09:28:50;6.70;;;2.00;;
56136;SDS011;42008;52.934;5.884;2023-06-14T09:31:16;5.45;;;2.10;;
56136;SDS011;42008;52.934;5.884;2023-06-14T09:33:49;3.72;;;1.88;;
56136;SDS011;42008;52.934;5.884;2023-06-14T09:36:25;5.45;;;1.90;;
56136;SDS011;42008;52.934;5.884;2023-06-14T09:38:58;6.53;;;1.90;;
56136;SDS011;42008;52.934;5.884;2023-06-14T09:43:59;4.10;;;1.90;;
56136;SDS011;42008;52.934;5.884;2023-06-14T09:46:27;7.55;;;2.03;;
56136;SDS011;42008;52.934;5.884;2023-06-14T09:48:54;7.40;;;2.15;;
56136;SDS011;42008;52.934;5.884;2023-06-14T09:51:20;3.35;;;1.90;;
56136;SDS011;42008;52.934;5.884;2023-06-14T09:53:51;4.88;;;1.85;;
56136;SDS011;42008;52.934;5.884;2023-06-14T09:59:05;5.18;;;1.95;;
56136;SDS011;42008;52.934;5.884;2023-06-14T10:01:34;4.97;;;1.90;;
56136;SDS011;42008;52.934;5.884;2023-06-14T10:04:05;5.78;;;2.20;;
56136;SDS011;42008;52.934;5.884;2023-06-14T10:06:31;4.13;;;1.80;;
56136;SDS011;42008;52.934;5.884;2023-06-14T10:09:02;7.15;;;1.85;;
56136;SDS011;42008;52.934;5.884;2023-06-14T10:11:31;9.17;;;2.10;;
56136;SDS011;42008;52.934;5.884;2023-06-14T10:13:58;4.05;;;1.67;;
56136;SDS011;42008;52.934;5.884;2023-06-14T10:19:28;5.30;;;1.90;;
56136;SDS011;42008;52.934;5.884;2023-06-14T10:24:44;5.15;;;1.88;;
56136;SDS011;42008;52.934;5.884;2023-06-14T10:27:14;3.97;;;2.00;;
56136;SDS011;42008;52.934;5.884;2023-06-14T10:32:22;4.07;;;2.20;;
56136;SDS011;42008;52.934;5.884;2023-06-14T10:34:59;5.97;;;2.13;;
56136;SDS011;42008;52.934;5.884;2023-06-14T10:37:32;7.45;;;1.98;;
56136;SDS011;42008;52.934;5.884;2023-06-14T10:39:58;4.13;;;1.90;;
56136;SDS011;42008;52.934;5.884;2023-06-14T10:42:27;10.20;;;2.08;;
56136;SDS011;42008;52.934;5.884;2023-06-14T10:44:57;10.95;;;2.00;;
56136;SDS011;42008;52.934;5.884;2023-06-14T10:47:27;6.45;;;2.10;;
56136;SDS011;42008;52.934;5.884;2023-06-14T10:50:04;3.60;;;1.83;;
56136;SDS011;42008;52.934;5.884;2023-06-14T10:52:33;6.38;;;1.98;;
56136;SDS011;42008;52.934;5.884;2023-06-14T10:57:46;8.18;;;2.00;;
56136;SDS011;42008;52.934;5.884;2023-06-14T11:00:24;7.78;;;1.90;;
56136;SDS011;42008;52.934;5.884;2023-06-14T11:05:41;10.43;;;1.95;;
56136;SDS011;42008;52.934;5.884;2023-06-14T11:11:10;9.65;;;2.10;;
56136;SDS011;42008;52.934;5.884;2023-06-14T11:13:38;4.53;;;1.90;;
56136;SDS011;42008;52.934;5.884;2023-06-14T11:16:16;10.57;;;1.90;;
56136;SDS011;42008;52.934;5.884;2023-06-14T11:18:42;5.82;;;1.90;;
56136;SDS011;42008;52.934;5.884;2023-06-14T11:21:09;6.82;;;1.70;;
56136;SDS011;42008;52.934;5.884;2023-06-14T11:23:36;8.45;;;2.00;;
56136;SDS011;42008;52.934;5.884;2023-06-14T11:26:02;3.80;;;1.75;;
56136;SDS011;42008;52.934;5.884;2023-06-14T11:28:39;7.07;;;1.70;;
56136;SDS011;42008;52.934;5.884;2023-06-14T11:31:06;3.72;;;1.60;;
56136;SDS011;42008;52.934;5.884;2023-06-14T11:33:32;6.43;;;1.90;;
56136;SDS011;42008;52.934;5.884;2023-06-14T11:36:01;6.68;;;1.90;;
56136;SDS011;42008;52.934;5.884;2023-06-14T11:38:28;4.68;;;1.77;;
56136;SDS011;42008;52.934;5.884;2023-06-14T11:40:58;6.00;;;1.67;;
56136;SDS011;42008;52.934;5.884;2023-06-14T11:43:24;7.05;;;1.65;;
56136;SDS011;42008;52.934;5.884;2023-06-14T11:45:51;6.10;;;1.73;;
56136;SDS011;42008;52.934;5.884;2023-06-14T11:48:17;4.32;;;1.90;;
56136;SDS011;42008;52.934;5.884;2023-06-14T11:50:44;9.48;;;1.70;;
56136;SDS011;42008;52.934;5.884;2023-06-14T11:53:09;9.13;;;1.67;;
56136;SDS011;42008;52.934;5.884;2023-06-14T11:55:38;7.18;;;1.50;;
56136;SDS011;42008;52.934;5.884;2023-06-14T11:58:05;5.43;;;1.83;;
56136;SDS011;42008;52.934;5.884;2023-06-14T12:00:32;4.68;;;1.65;;
56136;SDS011;42008;52.934;5.884;2023-06-14T12:02:58;3.50;;;1.50;;
56136;SDS011;42008;52.934;5.884;2023-06-14T12:05:24;6.97;;;1.80;;
56136;SDS011;42008;52.934;5.884;2023-06-14T12:07:57;2.90;;;1.50;;
56136;SDS011;42008;52.934;5.884;2023-06-14T12:10:27;5.07;;;1.50;;
56136;SDS011;42008;52.934;5.884;2023-06-14T12:13:00;5.38;;;1.60;;
56136;SDS011;42008;52.934;5.884;2023-06-14T12:15:28;2.95;;;1.40;;
56136;SDS011;42008;52.934;5.884;2023-06-14T12:17:54;6.28;;;1.35;;
56136;SDS011;42008;52.934;5.884;2023-06-14T12:20:21;7.35;;;1.45;;
56136;SDS011;42008;52.934;5.884;2023-06-14T12:22:59;19.85;;;2.35;;
56136;SDS011;42008;52.934;5.884;2023-06-14T12:25:33;5.82;;;1.65;;
56136;SDS011;42008;52.934;5.884;2023-06-14T12:28:07;9.55;;;1.55;;
56136;SDS011;42008;52.934;5.884;2023-06-14T12:30:34;5.30;;;1.50;;
56136;SDS011;42008;52.934;5.884;2023-06-14T12:33:04;2.28;;;1.20;;
56136;SDS011;42008;52.934;5.884;2023-06-14T12:35:30;4.25;;;1.45;;
56136;SDS011;42008;52.934;5.884;2023-06-14T12:37:56;6.90;;;1.60;;
56136;SDS011;42008;52.934;5.884;2023-06-14T12:40:22;12.93;;;2.08;;
56136;SDS011;42008;52.934;5.884;2023-06-14T12:42:48;8.60;;;1.50;;
56136;SDS011;42008;52.934;5.884;2023-06-14T12:45:14;8.25;;;1.65;;
56136;SDS011;42008;52.934;5.884;2023-06-14T12:47:40;6.93;;;1.30;;
56136;SDS011;42008;52.934;5.884;2023-06-14T12:50:07;5.80;;;1.38;;
56136;SDS011;42008;52.934;5.884;2023-06-14T12:52:33;7.47;;;1.50;;
56136;SDS011;42008;52.934;5.884;2023-06-14T12:55:06;5.05;;;1.60;;
56136;SDS011;42008;52.934;5.884;2023-06-14T12:57:31;3.70;;;1.67;;
56136;SDS011;42008;52.934;5.884;2023-06-14T13:00:00;3.22;;;1.30;;
56136;SDS011;42008;52.934;5.884;2023-06-14T13:02:26;4.07;;;1.45;;
56136;SDS011;42008;52.934;5.884;2023-06-14T13:04:52;6.82;;;1.65;;
56136;SDS011;42008;52.934;5.884;2023-06-14T13:07:18;4.97;;;1.50;;
56136;SDS011;42008;52.934;5.884;2023-06-14T13:09:43;5.30;;;1.67;;
56136;SDS011;42008;52.934;5.884;2023-06-14T13:12:12;5.07;;;1.55;;
56136;SDS011;42008;52.934;5.884;2023-06-14T13:14:38;5.00;;;1.35;;
56136;SDS011;42008;52.934;5.884;2023-06-14T13:17:06;5.40;;;1.70;;
56136;SDS011;42008;52.934;5.884;2023-06-14T13:19:35;4.20;;;1.33;;
56136;SDS011;42008;52.934;5.884;2023-06-14T13:22:01;7.47;;;1.50;;
56136;SDS011;42008;52.934;5.884;2023-06-14T13:24:27;4.35;;;1.40;;
56136;SDS011;42008;52.934;5.884;2023-06-14T13:26:54;4.80;;;1.63;;
56136;SDS011;42008;52.934;5.884;2023-06-14T13:29:20;5.65;;;1.73;;
56136;SDS011;42008;52.934;5.884;2023-06-14T13:31:46;2.50;;;1.30;;
56136;SDS011;42008;52.934;5.884;2023-06-14T13:34:12;3.00;;;1.42;;
56136;SDS011;42008;52.934;5.884;2023-06-14T13:36:37;2.75;;;1.50;;
56136;SDS011;42008;52.934;5.884;2023-06-14T13:39:04;3.45;;;1.40;;
56136;SDS011;42008;52.934;5.884;2023-06-14T13:41:29;3.72;;;1.50;;
56136;SDS011;42008;52.934;5.884;2023-06-14T13:43:58;7.95;;;1.80;;
56136;SDS011;42008;52.934;5.884;2023-06-14T13:46:24;4.95;;;1.60;;
56136;SDS011;42008;52.934;5.884;2023-06-14T13:48:50;4.95;;;1.60;;
56136;SDS011;42008;52.934;5.884;2023-06-14T13:51:17;5.80;;;1.55;;
56136;SDS011;42008;52.934;5.884;2023-06-14T13:53:50;7.25;;;1.70;;
56136;SDS011;42008;52.934;5.884;2023-06-14T13:56:16;5.15;;;1.60;;
56136;SDS011;42008;52.934;5.884;2023-06-14T13:58:42;6.57;;;1.50;;
56136;SDS011;42008;52.934;5.884;2023-06-14T14:01:08;7.38;;;1.30;;
56136;SDS011;42008;52.934;5.884;2023-06-14T14:03:34;4.90;;;1.55;;
56136;SDS011;42008;52.934;5.884;2023-06-14T14:06:01;3.42;;;1.50;;
56136;SDS011;42008;52.934;5.884;2023-06-14T14:08:27;4.32;;;1.52;;
56136;SDS011;42008;52.934;5.884;2023-06-14T14:10:53;4.07;;;1.55;;
56136;SDS011;42008;52.934;5.884;2023-06-14T14:13:19;4.30;;;1.58;;
56136;SDS011;42008;52.934;5.884;2023-06-14T14:15:46;4.38;;;1.50;;
56136;SDS011;42008;52.934;5.884;2023-06-14T14:18:11;6.43;;;1.48;;
56136;SDS011;42008;52.934;5.884;2023-06-14T14:20:37;3.42;;;1.42;;
56136;SDS011;42008;52.934;5.884;2023-06-14T14:23:03;5.35;;;1.45;;
56136;SDS011;42008;52.934;5.884;2023-06-14T14:25:29;3.78;;;1.40;;
56136;SDS011;42008;52.934;5.884;2023-06-14T14:27:55;3.95;;;1.40;;
56136;SDS011;42008;52.934;5.884;2023-06-14T14:30:21;5.57;;;1.60;;
56136;SDS011;42008;52.934;5.884;2023-06-14T14:32:48;8.30;;;1.58;;
56136;SDS011;42008;52.934;5.884;2023-06-14T14:35:16;4.72;;;1.48;;
56136;SDS011;42008;52.934;5.884;2023-06-14T14:37:43;5.35;;;1.40;;
56136;SDS011;42008;52.934;5.884;2023-06-14T14:40:09;4.22;;;1.30;;
56136;SDS011;42008;52.934;5.884;2023-06-14T14:42:35;4.75;;;1.30;;
56136;SDS011;42008;52.934;5.884;2023-06-14T14:45:02;6.93;;;1.50;;
56136;SDS011;42008;52.934;5.884;2023-06-14T14:47:28;6.95;;;1.40;;
56136;SDS011;42008;52.934;5.884;2023-06-14T14:49:53;5.20;;;1.30;;
56136;SDS011;42008;52.934;5.884;2023-06-14T14:52:19;4.63;;;1.40;;
56136;SDS011;42008;52.934;5.884;2023-06-14T14:54:45;4.53;;;1.40;;
56136;SDS011;42008;52.934;5.884;2023-06-14T14:57:11;5.28;;;1.50;;
56136;SDS011;42008;52.934;5.884;2023-06-14T14:59:36;8.02;;;1.40;;
56136;SDS011;42008;52.934;5.884;2023-06-14T15:02:02;3.05;;;1.45;;
56136;SDS011;42008;52.934;5.884;2023-06-14T15:04:28;4.53;;;1.50;;
56136;SDS011;42008;52.934;5.884;2023-06-14T15:06:54;3.80;;;1.40;;
56136;SDS011;42008;52.934;5.884;2023-06-14T15:09:19;4.22;;;1.40;;
56136;SDS011;42008;52.934;5.884;2023-06-14T15:11:45;4.60;;;1.50;;
56136;SDS011;42008;52.934;5.884;2023-06-14T15:14:10;2.67;;;1.23;;